Time;durP1;ratioP1;P1;durP2;ratioP2;P2;SDS_P1;SDS_P2;PMS_P1;PMS_P2;Temp;Humidity;BMP_temperature;BMP_pressure;BME280_temperature;BME280_humidity;BME280_pressure;Samples;Min_cycle;Max_cycle;Signal;HPM_P1;HPM_P2
2022/09/12 00:00:24;;;;;;;10.98;8.82;;;;;21.10;101592.00;;;;5074658;28;20737;-80
2022/09/12 00:02:55;;;;;;;11.15;9.25;;;;;21.10;101581.00;;;;5090386;28;20206;-79
2022/09/12 00:05:23;;;;;;;10.65;9.23;;;;;21.10;101571.00;;;;5091113;28;20194;-79
2022/09/12 00:07:52;;;;;;;11.68;9.80;;;;;21.10;101577.00;;;;5082034;28;20229;-79
2022/09/12 00:10:19;;;;;;;11.45;9.27;;;;;21.10;101577.00;;;;5088174;28;20565;-79
2022/09/12 00:12:46;;;;;;;11.38;9.40;;;;;21.10;101574.00;;;;5081509;28;20202;-79
2022/09/12 00:15:14;;;;;;;10.43;9.23;;;;;21.10;101576.00;;;;5070684;28;20195;-79
2022/09/12 00:17:41;;;;;;;11.32;9.52;;;;;21.00;101565.00;;;;5075760;28;20223;-80
2022/09/12 00:20:10;;;;;;;12.68;10.38;;;;;21.00;101563.00;;;;5088634;28;20190;-79
2022/09/12 00:22:38;;;;;;;11.75;10.15;;;;;21.00;101566.00;;;;5083778;28;20280;-80
2022/09/12 00:25:08;;;;;;;11.88;9.48;;;;;21.00;101555.00;;;;5081799;28;20210;-79
2022/09/12 00:27:35;;;;;;;13.15;10.70;;;;;21.00;101568.00;;;;5086142;28;20214;-79
2022/09/12 00:30:02;;;;;;;12.63;10.38;;;;;21.00;101566.00;;;;5072550;28;20317;-80
2022/09/12 00:32:29;;;;;;;11.77;9.95;;;;;21.00;101570.00;;;;5090946;28;20222;-80
2022/09/12 00:34:57;;;;;;;14.15;10.75;;;;;21.00;101559.00;;;;5089818;28;20210;-79
2022/09/12 00:37:24;;;;;;;12.55;10.55;;;;;21.00;101560.00;;;;5083253;28;20209;-79
2022/09/12 00:39:51;;;;;;;12.73;11.20;;;;;21.00;101554.00;;;;5072426;28;20571;-79
2022/09/12 00:42:20;;;;;;;14.63;11.27;;;;;20.90;101561.00;;;;5070558;28;20195;-79
2022/09/12 00:44:50;;;;;;;15.40;11.65;;;;;20.90;101559.00;;;;5070148;28;20584;-80
2022/09/12 00:47:22;;;;;;;12.40;10.73;;;;;20.90;101550.00;;;;5069180;28;20199;-79
2022/09/12 00:49:54;;;;;;;14.43;11.45;;;;;20.90;101549.00;;;;5070165;28;20199;-79
2022/09/12 00:52:27;;;;;;;16.25;11.77;;;;;20.90;101550.00;;;;5080989;28;20206;-80
2022/09/12 00:54:59;;;;;;;13.38;11.48;;;;;20.90;101549.00;;;;5070263;28;20205;-79
2022/09/12 00:57:32;;;;;;;12.45;9.90;;;;;20.90;101543.00;;;;5074602;28;20191;-79
2022/09/12 01:00:04;;;;;;;13.75;11.38;;;;;20.90;101546.00;;;;5069930;28;20695;-80
2022/09/12 01:02:31;;;;;;;12.40;10.85;;;;;20.90;101549.00;;;;5069909;28;20195;-79
2022/09/12 01:04:59;;;;;;;13.88;11.77;;;;;20.90;101545.00;;;;5086220;28;20201;-80
2022/09/12 01:07:27;;;;;;;14.25;11.85;;;;;20.90;101545.00;;;;5073015;28;20202;-80
2022/09/12 01:09:55;;;;;;;13.30;10.48;;;;;20.80;101542.00;;;;5085351;28;20202;-80
2022/09/12 01:12:22;;;;;;;13.25;11.13;;;;;20.80;101539.00;;;;5089573;28;20202;-80
2022/09/12 01:14:51;;;;;;;15.20;10.70;;;;;20.80;101542.00;;;;5088343;28;20199;-80
2022/09/12 01:17:19;;;;;;;17.67;11.13;;;;;20.80;101534.00;;;;5068814;28;20231;-80
2022/09/12 01:20:20;;;;;;;13.07;10.75;;;;;20.60;101534.00;;;;5069773;28;20198;-80
2022/09/12 01:23:18;;;;;;;11.57;9.73;;;;;20.70;101535.00;;;;5068938;28;20205;-80
2022/09/12 01:26:00;;;;;;;13.90;10.25;;;;;20.60;101537.00;;;;5076236;28;20198;-79
2022/09/12 01:28:53;;;;;;;12.90;10.20;;;;;20.60;101533.00;;;;5071190;28;20307;-79
2022/09/12 01:31:29;;;;;;;11.80;9.38;;;;;20.60;101527.00;;;;5084294;28;20214;-80
2022/09/12 01:34:09;;;;;;;12.25;10.27;;;;;20.60;101525.00;;;;5085611;28;20691;-80
2022/09/12 01:36:50;;;;;;;13.13;10.70;;;;;20.60;101521.00;;;;5084539;28;20194;-80
2022/09/12 01:39:26;;;;;;;11.95;10.48;;;;;20.60;101523.00;;;;5070617;28;20209;-80
2022/09/12 01:42:04;;;;;;;12.68;10.50;;;;;20.60;101519.00;;;;5069291;28;20651;-80
2022/09/12 01:44:40;;;;;;;12.80;10.20;;;;;20.60;101515.00;;;;5069980;28;20202;-80
2022/09/12 01:47:15;;;;;;;12.73;10.60;;;;;20.60;101507.00;;;;5068670;28;20190;-79
2022/09/12 01:49:50;;;;;;;13.60;10.40;;;;;20.60;101512.00;;;;5068915;28;20226;-80
2022/09/12 01:52:22;;;;;;;11.43;10.10;;;;;20.60;101507.00;;;;5069029;28;20203;-80
2022/09/12 01:54:53;;;;;;;12.00;10.57;;;;;20.60;101499.00;;;;5076060;28;20202;-80
2022/09/12 01:57:25;;;;;;;13.55;11.10;;;;;20.60;101502.00;;;;5069129;28;20222;-80
2022/09/12 01:59:58;;;;;;;14.35;10.75;;;;;20.60;101497.00;;;;5078322;28;20649;-80
2022/09/12 02:02:32;;;;;;;12.75;11.05;;;;;20.50;101501.00;;;;5088622;28;20194;-79
2022/09/12 02:05:05;;;;;;;12.98;10.32;;;;;20.60;101489.00;;;;5071824;28;20202;-80
2022/09/12 02:07:38;;;;;;;12.55;9.85;;;;;20.60;101490.00;;;;5076653;28;20201;-79
2022/09/12 02:10:10;;;;;;;12.40;10.25;;;;;20.60;101487.00;;;;5078468;28;20569;-79
2022/09/12 02:12:42;;;;;;;12.98;10.48;;;;;20.60;101491.00;;;;5068200;28;20672;-80
2022/09/12 02:15:12;;;;;;;13.18;11.35;;;;;20.60;101482.00;;;;5068085;28;20199;-79
2022/09/12 02:17:44;;;;;;;11.68;9.73;;;;;20.60;101482.00;;;;5081074;28;20201;-79
2022/09/12 02:20:17;;;;;;;13.65;11.00;;;;;20.50;101479.00;;;;5088528;28;20210;-80
2022/09/12 02:22:48;;;;;;;13.25;10.45;;;;;20.60;101468.00;;;;5074371;28;20203;-79
2022/09/12 02:25:19;;;;;;;19.67;10.82;;;;;20.60;101470.00;;;;5067690;28;20195;-80
2022/09/12 02:27:50;;;;;;;13.98;10.77;;;;;20.60;101468.00;;;;5068195;28;20191;-80
2022/09/12 02:30:18;;;;;;;14.13;10.95;;;;;20.60;101471.00;;;;5072500;28;20217;-80
2022/09/12 02:32:58;;;;;;;14.88;11.38;;;;;20.50;101468.00;;;;5072230;28;20214;-80
2022/09/12 02:35:35;;;;;;;13.05;10.63;;;;;20.50;101478.00;;;;5085452;28;20189;-80
2022/09/12 02:38:07;;;;;;;15.52;11.25;;;;;20.50;101478.00;;;;5082819;28;20205;-80
2022/09/12 02:40:35;;;;;;;12.38;10.38;;;;;20.60;101477.00;;;;5083957;28;20231;-79
2022/09/12 02:43:05;;;;;;;14.05;10.43;;;;;20.60;101469.00;;;;5086830;28;20216;-79
2022/09/12 02:45:33;;;;;;;13.40;10.82;;;;;20.60;101467.00;;;;5074206;28;20198;-80
2022/09/12 02:48:08;;;;;;;13.15;11.45;;;;;20.50;101464.00;;;;5080094;28;20251;-80
2022/09/12 02:50:35;;;;;;;12.10;10.38;;;;;20.50;101461.00;;;;5083783;28;20655;-80
2022/09/12 02:53:06;;;;;;;12.35;10.57;;;;;20.60;101459.00;;;;5085324;28;20194;-80
2022/09/12 02:55:35;;;;;;;14.50;10.35;;;;;20.50;101459.00;;;;5080792;28;20202;-80
2022/09/12 02:58:05;;;;;;;12.73;10.32;;;;;20.50;101456.00;;;;5086526;28;20186;-80
2022/09/12 03:00:41;;;;;;;13.38;10.40;;;;;20.50;101456.00;;;;5068733;28;21076;-80
2022/09/12 03:03:37;;;;;;;13.05;10.52;;;;;20.40;101454.00;;;;5069191;28;20206;-79
2022/09/12 03:06:14;;;;;;;12.23;10.35;;;;;20.50;101451.00;;;;5067064;28;20202;-80
2022/09/12 03:08:59;;;;;;;13.32;10.32;;;;;20.40;101451.00;;;;5080728;28;20233;-80
2022/09/12 03:11:50;;;;;;;14.45;10.73;;;;;20.40;101451.00;;;;5081773;28;20201;-80
2022/09/12 03:14:33;;;;;;;11.98;9.95;;;;;20.40;101452.00;;;;5078570;28;20206;-80
2022/09/12 03:17:09;;;;;;;12.02;10.35;;;;;20.40;101448.00;;;;5086852;28;20578;-80
2022/09/12 03:19:50;;;;;;;13.13;11.05;;;;;20.40;101452.00;;;;5086987;28;20232;-80
2022/09/12 03:22:22;;;;;;;11.82;10.13;;;;;20.40;101452.00;;;;5087438;28;20198;-80
2022/09/12 03:24:54;;;;;;;12.07;9.68;;;;;20.40;101453.00;;;;5087238;28;20198;-79
2022/09/12 03:27:27;;;;;;;14.70;11.25;;;;;20.40;101447.00;;;;5085877;28;20222;-79
2022/09/12 03:29:55;;;;;;;13.38;10.88;;;;;20.40;101441.00;;;;5081741;28;20238;-79
2022/09/12 03:32:41;;;;;;;11.13;9.82;;;;;20.30;101443.00;;;;5087533;28;20218;-79
2022/09/12 03:35:10;;;;;;;11.02;9.02;;;;;20.40;101440.00;;;;5086764;28;20202;-79
2022/09/12 03:37:37;;;;;;;12.15;9.63;;;;;20.40;101438.00;;;;5085499;28;20191;-79
2022/09/12 03:40:06;;;;;;;12.15;10.07;;;;;20.30;101432.00;;;;5088344;28;20199;-79
2022/09/12 03:42:33;;;;;;;12.18;10.52;;;;;20.40;101442.00;;;;5081885;28;20215;-79
2022/09/12 03:45:01;;;;;;;14.30;11.23;;;;;20.40;101437.00;;;;5067756;28;20194;-79
2022/09/12 03:47:28;;;;;;;12.15;9.88;;;;;20.30;101430.00;;;;5071598;28;20199;-79
2022/09/12 03:49:55;;;;;;;13.30;10.52;;;;;20.30;101431.00;;;;5082164;28;20222;-79
2022/09/12 03:52:24;;;;;;;11.95;10.20;;;;;20.30;101426.00;;;;5084804;28;20190;-80
2022/09/12 03:54:51;;;;;;;15.50;11.63;;;;;20.30;101421.00;;;;5074912;28;20209;-79
2022/09/12 03:57:19;;;;;;;13.80;10.45;;;;;20.30;101423.00;;;;5075070;28;20568;-79
2022/09/12 03:59:48;;;;;;;13.18;11.20;;;;;20.30;101418.00;;;;5081232;28;20580;-79
2022/09/12 04:02:15;;;;;;;12.13;10.07;;;;;20.30;101423.00;;;;5086793;28;20214;-79
2022/09/12 04:04:43;;;;;;;14.70;10.05;;;;;20.30;101426.00;;;;5086196;28;20205;-79
2022/09/12 04:07:10;;;;;;;14.02;11.07;;;;;20.30;101424.00;;;;5090504;28;20213;-80
2022/09/12 04:09:39;;;;;;;13.40;10.13;;;;;20.30;101428.00;;;;5090475;28;20237;-79
2022/09/12 04:12:07;;;;;;;12.05;9.90;;;;;20.30;101422.00;;;;5079940;28;20196;-80
2022/09/12 04:14:34;;;;;;;13.52;10.70;;;;;20.30;101422.00;;;;5071160;28;20214;-80
2022/09/12 04:17:02;;;;;;;12.82;10.75;;;;;20.30;101413.00;;;;5076834;28;20203;-79
2022/09/12 04:19:29;;;;;;;13.40;11.27;;;;;20.30;101425.00;;;;5070599;28;20217;-79
2022/09/12 04:21:56;;;;;;;13.82;11.13;;;;;20.30;101420.00;;;;5069669;28;20207;-79
2022/09/12 04:24:24;;;;;;;13.73;10.80;;;;;20.30;101412.00;;;;5084637;28;20233;-79
2022/09/12 04:26:52;;;;;;;17.67;12.18;;;;;20.30;101414.00;;;;5089012;28;20218;-79
2022/09/12 04:29:20;;;;;;;13.18;10.35;;;;;20.30;101423.00;;;;5089295;28;20226;-79
2022/09/12 04:31:47;;;;;;;14.50;11.10;;;;;20.30;101417.00;;;;5072429;28;20211;-79
2022/09/12 04:34:15;;;;;;;13.63;11.13;;;;;20.30;101418.00;;;;5083069;28;20199;-79
2022/09/12 04:36:42;;;;;;;14.65;10.63;;;;;20.30;101418.00;;;;5081427;28;20279;-79
2022/09/12 04:39:11;;;;;;;12.27;10.30;;;;;20.30;101417.00;;;;5087569;28;20688;-80
2022/09/12 04:41:40;;;;;;;14.20;11.50;;;;;20.30;101419.00;;;;5070294;28;20223;-79
2022/09/12 04:44:11;;;;;;;14.73;11.30;;;;;20.30;101411.00;;;;5088977;28;20205;-79
2022/09/12 04:46:40;;;;;;;13.35;11.15;;;;;20.30;101407.00;;;;5079932;28;20514;-79
2022/09/12 04:49:08;;;;;;;13.80;10.80;;;;;20.40;101407.00;;;;5079487;28;20225;-80
2022/09/12 04:51:37;;;;;;;17.20;12.43;;;;;20.30;101412.00;;;;5088471;28;20214;-79
2022/09/12 04:54:08;;;;;;;16.05;12.38;;;;;20.30;101404.00;;;;5088330;28;20194;-79
2022/09/12 04:56:38;;;;;;;14.32;11.25;;;;;20.30;101409.00;;;;5074421;28;20195;-79
2022/09/12 04:59:08;;;;;;;13.80;10.75;;;;;20.40;101416.00;;;;5078515;28;20213;-79
2022/09/12 05:01:35;;;;;;;13.35;10.75;;;;;20.40;101412.00;;;;5080706;28;20532;-79
2022/09/12 05:04:03;;;;;;;17.35;11.35;;;;;20.40;101408.00;;;;5089579;28;20198;-80
2022/09/12 05:06:32;;;;;;;14.13;11.65;;;;;20.40;101406.00;;;;5089399;28;20205;-80
2022/09/12 05:09:01;;;;;;;13.50;10.93;;;;;20.40;101411.00;;;;5076086;28;20219;-80
2022/09/12 05:11:30;;;;;;;14.02;11.45;;;;;20.40;101407.00;;;;5069336;28;20711;-80
2022/09/12 05:13:58;;;;;;;14.10;11.25;;;;;20.40;101402.00;;;;5069560;28;20195;-79
2022/09/12 05:16:28;;;;;;;14.70;11.10;;;;;20.40;101406.00;;;;5068315;28;20195;-79
2022/09/12 05:18:57;;;;;;;16.92;12.48;;;;;20.40;101410.00;;;;5068563;28;20202;-79
2022/09/12 05:21:25;;;;;;;19.25;12.57;;;;;20.50;101404.00;;;;5069228;28;20268;-79
2022/09/12 05:23:54;;;;;;;16.42;12.40;;;;;20.40;101404.00;;;;5078066;28;20205;-79
2022/09/12 05:26:23;;;;;;;15.68;11.82;;;;;20.50;101416.00;;;;5078425;28;20202;-81
2022/09/12 05:28:51;;;;;;;15.52;12.48;;;;;20.50;101409.00;;;;5073040;28;20238;-81
2022/09/12 05:31:20;;;;;;;20.10;13.75;;;;;20.50;101404.00;;;;5083523;28;20199;-80
2022/09/12 05:33:50;;;;;;;15.93;13.05;;;;;20.50;101399.00;;;;5080026;28;20194;-80
2022/09/12 05:36:19;;;;;;;16.02;12.10;;;;;20.50;101405.00;;;;5076548;28;20624;-80
2022/09/12 05:38:46;;;;;;;17.05;13.38;;;;;20.50;101407.00;;;;5073455;28;20217;-80
2022/09/12 05:41:15;;;;;;;22.23;13.45;;;;;20.50;101407.00;;;;5079604;28;20205;-81
2022/09/12 05:43:44;;;;;;;15.60;12.48;;;;;20.50;101405.00;;;;5083078;28;20264;-81
2022/09/12 05:46:13;;;;;;;19.73;12.05;;;;;20.50;101403.00;;;;5068676;28;20195;-80
2022/09/12 05:48:43;;;;;;;17.67;13.02;;;;;20.50;101407.00;;;;5088961;28;20202;-80
2022/09/12 05:51:13;;;;;;;18.75;12.90;;;;;20.60;101409.00;;;;5088722;28;20202;-80
2022/09/12 05:53:41;;;;;;;15.43;12.90;;;;;20.60;101400.00;;;;5074736;28;20199;-79
2022/09/12 05:56:11;;;;;;;21.67;13.52;;;;;20.60;101408.00;;;;5079386;28;20391;-81
2022/09/12 05:58:40;;;;;;;16.23;12.40;;;;;20.60;101407.00;;;;5084587;28;20212;-79
2022/09/12 06:01:10;;;;;;;16.58;12.43;;;;;20.60;101402.00;;;;5076880;28;20680;-79
2022/09/12 06:03:40;;;;;;;17.23;13.00;;;;;20.60;101398.00;;;;5071209;28;20646;-79
2022/09/12 06:06:12;;;;;;;15.88;12.32;;;;;20.60;101405.00;;;;5081571;28;20202;-79
2022/09/12 06:08:42;;;;;;;17.60;13.95;;;;;20.60;101411.00;;;;5077081;28;20580;-79
2022/09/12 06:11:11;;;;;;;16.30;12.45;;;;;20.60;101408.00;;;;5072223;28;20261;-79
2022/09/12 06:13:39;;;;;;;21.65;13.20;;;;;20.70;101402.00;;;;5072476;28;20205;-79
2022/09/12 06:16:09;;;;;;;18.15;14.07;;;;;20.70;101409.00;;;;5081921;28;20199;-79
2022/09/12 06:18:37;;;;;;;17.80;12.95;;;;;20.70;101407.00;;;;5068439;28;20233;-78
2022/09/12 06:21:05;;;;;;;16.95;12.25;;;;;20.70;101407.00;;;;5076823;28;20206;-78
2022/09/12 06:23:33;;;;;;;17.48;12.85;;;;;20.70;101405.00;;;;5079455;28;20207;-78
2022/09/12 06:26:03;;;;;;;17.35;12.57;;;;;20.70;101404.00;;;;5076991;28;20205;-77
2022/09/12 06:28:30;;;;;;;19.40;14.05;;;;;20.70;101406.00;;;;5067672;28;20235;-78
2022/09/12 06:31:04;;;;;;;20.30;13.07;;;;;20.70;101405.00;;;;5068204;28;20223;-78
2022/09/12 06:33:33;;;;;;;19.58;12.68;;;;;20.70;101402.00;;;;5071078;28;20542;-78
2022/09/12 06:36:04;;;;;;;18.17;13.18;;;;;20.70;101408.00;;;;5068274;28;20716;-78
2022/09/12 06:38:32;;;;;;;16.15;12.13;;;;;20.80;101413.00;;;;5068860;28;20203;-78
2022/09/12 06:41:03;;;;;;;19.23;13.88;;;;;20.80;101406.00;;;;5076110;28;20579;-78
2022/09/12 06:43:31;;;;;;;18.80;13.50;;;;;20.80;101406.00;;;;5079598;28;20197;-78
2022/09/12 06:45:59;;;;;;;17.67;12.27;;;;;20.90;101399.00;;;;5070907;28;20218;-78
2022/09/12 06:48:26;;;;;;;21.45;14.15;;;;;20.90;101402.00;;;;5083028;28;20662;-79
2022/09/12 06:50:58;;;;;;;17.85;12.52;;;;;20.90;101396.00;;;;5087575;28;20413;-78
2022/09/12 06:53:26;;;;;;;22.15;14.63;;;;;21.00;101390.00;;;;5081305;28;20203;-78
2022/09/12 06:55:57;;;;;;;20.20;14.00;;;;;21.00;101391.00;;;;5075307;28;20996;-79
2022/09/12 06:58:27;;;;;;;19.42;14.10;;;;;21.10;101388.00;;;;5070167;28;20665;-77
2022/09/12 07:01:01;;;;;;;19.95;13.60;;;;;21.10;101394.00;;;;5073330;28;20570;-78
2022/09/12 07:03:29;;;;;;;20.70;14.00;;;;;21.20;101389.00;;;;5069359;28;20230;-78
2022/09/12 07:05:56;;;;;;;21.52;14.52;;;;;21.30;101387.00;;;;5074480;28;20202;-78
2022/09/12 07:08:24;;;;;;;17.85;12.65;;;;;21.40;101394.00;;;;5081601;28;20206;-77
2022/09/12 07:10:51;;;;;;;19.10;14.30;;;;;21.40;101386.00;;;;5080572;28;20218;-78
2022/09/12 07:13:19;;;;;;;17.60;13.30;;;;;21.50;101392.00;;;;5067623;28;20203;-79
2022/09/12 07:15:47;;;;;;;24.00;14.52;;;;;21.50;101389.00;;;;5069921;28;20228;-77
2022/09/12 07:18:16;;;;;;;19.42;13.77;;;;;21.60;101388.00;;;;5072725;28;20671;-77
2022/09/12 07:20:43;;;;;;;21.52;14.65;;;;;21.70;101396.00;;;;5067390;28;20310;-78
2022/09/12 07:23:10;;;;;;;19.35;14.15;;;;;21.70;101393.00;;;;5077927;28;20213;-78
2022/09/12 07:25:38;;;;;;;22.73;15.13;;;;;21.80;101386.00;;;;5077714;28;20547;-80
2022/09/12 07:28:05;;;;;;;20.17;14.57;;;;;21.80;101390.00;;;;5074787;28;20201;-79
2022/09/12 07:30:32;;;;;;;20.42;14.50;;;;;21.90;101397.00;;;;5072130;28;20306;-79
2022/09/12 07:33:01;;;;;;;20.63;13.75;;;;;22.00;101391.00;;;;5072132;28;20214;-80
2022/09/12 07:35:28;;;;;;;20.02;14.02;;;;;22.10;101395.00;;;;5077633;28;20759;-79
2022/09/12 07:37:55;;;;;;;20.83;14.45;;;;;22.20;101397.00;;;;5071220;28;20206;-79
2022/09/12 07:40:22;;;;;;;18.92;13.07;;;;;22.30;101390.00;;;;5077328;28;20558;-78
2022/09/12 07:42:50;;;;;;;19.52;13.73;;;;;22.30;101392.00;;;;5077674;28;20228;-79
2022/09/12 07:45:17;;;;;;;20.75;14.98;;;;;22.40;101384.00;;;;5079675;28;20579;-81
2022/09/12 07:47:44;;;;;;;20.85;14.07;;;;;22.50;101395.00;;;;5073806;28;20658;-82
2022/09/12 07:50:13;;;;;;;18.63;13.80;;;;;22.50;101394.00;;;;5079144;28;20229;-82
2022/09/12 07:52:40;;;;;;;18.38;13.52;;;;;22.60;101398.00;;;;5085670;28;20198;-82
2022/09/12 07:55:08;;;;;;;23.35;14.57;;;;;22.70;101397.00;;;;5084951;28;20202;-82
2022/09/12 07:57:35;;;;;;;20.45;14.02;;;;;22.70;101402.00;;;;5076019;28;20195;-82
2022/09/12 08:00:03;;;;;;;19.58;13.50;;;;;22.80;101400.00;;;;5074857;28;20203;-81
2022/09/12 08:02:31;;;;;;;18.13;12.57;;;;;22.90;101397.00;;;;5083922;28;20198;-81
2022/09/12 08:04:59;;;;;;;17.75;13.57;;;;;23.00;101398.00;;;;5075933;28;20198;-81
2022/09/12 08:07:27;;;;;;;18.58;13.77;;;;;23.10;101408.00;;;;5077341;28;20191;-82
2022/09/12 08:09:55;;;;;;;17.23;12.45;;;;;23.20;101402.00;;;;5080522;28;20222;-82
2022/09/12 08:12:22;;;;;;;20.25;13.68;;;;;23.30;101401.00;;;;5072774;28;22586;-83
2022/09/12 08:14:50;;;;;;;19.27;12.93;;;;;23.40;101406.00;;;;5077809;28;20209;-83
2022/09/12 08:17:17;;;;;;;22.25;13.43;;;;;23.50;101404.00;;;;5082766;28;20195;-82
2022/09/12 08:19:44;;;;;;;19.52;13.60;;;;;23.60;101410.00;;;;5075761;28;20687;-85
2022/09/12 08:22:12;;;;;;;17.90;13.45;;;;;23.60;101413.00;;;;5079124;28;20531;-82
2022/09/12 08:24:40;;;;;;;19.38;13.00;;;;;23.70;101418.00;;;;5078887;28;20195;-83
2022/09/12 08:27:08;;;;;;;16.60;13.25;;;;;23.80;101413.00;;;;5084760;28;20209;-82
2022/09/12 08:29:35;;;;;;;16.23;12.77;;;;;23.90;101411.00;;;;5063780;28;20234;-81
2022/09/12 08:32:03;;;;;;;17.00;12.90;;;;;24.00;101408.00;;;;5076871;28;20211;-80
2022/09/12 08:34:30;;;;;;;15.40;12.10;;;;;24.20;101404.00;;;;5086763;28;20194;-81
2022/09/12 08:36:57;;;;;;;15.32;11.93;;;;;24.30;101405.00;;;;5086565;28;20198;-82
2022/09/12 08:39:24;;;;;;;17.08;12.95;;;;;24.40;101405.00;;;;5072788;28;20558;-81
2022/09/12 08:42:00;;;;;;;17.00;12.90;;;;;24.40;101409.00;;;;5073855;28;20759;-81
2022/09/12 08:44:52;;;;;;;12.98;11.15;;;;;24.50;101414.00;;;;5071143;28;20655;-82
2022/09/12 08:47:25;;;;;;;16.42;12.27;;;;;24.70;101410.00;;;;5065884;28;20203;-82
2022/09/12 08:50:02;;;;;;;14.68;11.50;;;;;24.80;101413.00;;;;5076019;28;20531;-84
2022/09/12 08:52:36;;;;;;;16.20;12.15;;;;;24.90;101407.00;;;;5079802;28;20570;-82
2022/09/12 08:55:05;;;;;;;15.23;11.88;;;;;25.00;101411.00;;;;5072648;28;20543;-80
2022/09/12 08:57:34;;;;;;;14.60;11.38;;;;;25.10;101409.00;;;;5076599;28;20653;-82
2022/09/12 09:00:04;;;;;;;15.48;11.45;;;;;25.20;101410.00;;;;5076121;28;20206;-82
2022/09/12 09:03:00;;;;;;;13.23;10.57;;;;;25.20;101410.00;;;;5078597;28;20224;-82
2022/09/12 09:05:42;;;;;;;13.73;10.98;;;;;25.40;101404.00;;;;5073076;28;20202;-82
2022/09/12 09:08:26;;;;;;;13.00;10.13;;;;;25.50;101404.00;;;;5074952;28;20202;-82
2022/09/12 09:11:01;;;;;;;12.80;11.07;;;;;25.60;101395.00;;;;5079832;28;20219;-82
2022/09/12 09:16:33;;;;;;;12.30;10.18;;;;;25.90;101390.00;;;;5072628;28;20568;-82
2022/09/12 09:19:05;;;;;;;14.70;10.57;;;;;25.90;101396.00;;;;5077302;28;20195;-81
2022/09/12 09:21:39;;;;;;;15.05;10.80;;;;;26.10;101396.00;;;;5080799;28;20205;-82
2022/09/12 09:24:11;;;;;;;13.13;10.27;;;;;26.20;101392.00;;;;5077405;28;20190;-81
2022/09/12 09:26:45;;;;;;;13.07;11.38;;;;;26.30;101403.00;;;;5076208;28;20187;-83
2022/09/12 09:29:19;;;;;;;11.23;10.02;;;;;26.30;101403.00;;;;5075454;28;20660;-82
2022/09/12 09:31:49;;;;;;;12.13;10.07;;;;;26.50;101392.00;;;;5074909;28;20230;-81
2022/09/12 09:34:20;;;;;;;13.25;9.95;;;;;26.50;101391.00;;;;5072275;28;20195;-83
2022/09/12 09:36:52;;;;;;;11.48;9.27;;;;;26.60;101382.00;;;;5081515;28;20206;-82
2022/09/12 09:39:35;;;;;;;12.35;10.27;;;;;26.70;101394.00;;;;5080773;28;20194;-81
2022/09/12 09:42:23;;;;;;;9.77;8.40;;;;;26.70;101392.00;;;;5073226;28;20202;-82
2022/09/12 09:44:55;;;;;;;11.55;10.05;;;;;26.90;101389.00;;;;5070380;28;20210;-82
2022/09/12 09:47:23;;;;;;;10.18;7.97;;;;;27.00;101389.00;;;;5081447;28;20199;-81
2022/09/12 09:49:50;;;;;;;12.80;9.75;;;;;27.10;101396.00;;;;5078279;28;20286;-82
2022/09/12 09:52:26;;;;;;;10.57;8.63;;;;;27.20;101397.00;;;;5073170;28;20218;-82
2022/09/12 09:54:57;;;;;;;10.95;8.25;;;;;27.30;101382.00;;;;5078982;28;20197;-80
2022/09/12 09:57:43;;;;;;;11.23;7.78;;;;;27.30;101386.00;;;;5075201;28;20656;-82
2022/09/12 10:00:29;;;;;;;12.60;8.30;;;;;27.40;101372.00;;;;5081014;28;20281;-82
2022/09/12 10:03:22;;;;;;;10.25;8.43;;;;;27.50;101378.00;;;;5081837;28;20236;-81
2022/09/12 10:05:51;;;;;;;9.98;7.80;;;;;27.60;101379.00;;;;5078040;28;20208;-81
2022/09/12 10:08:25;;;;;;;8.82;7.93;;;;;27.60;101366.00;;;;5071825;28;20210;-80
2022/09/12 10:11:02;;;;;;;13.43;8.75;;;;;27.70;101371.00;;;;5071301;28;20218;-81
2022/09/12 10:13:35;;;;;;;8.88;7.78;;;;;27.80;101371.00;;;;5078142;28;20198;-80
2022/09/12 10:16:06;;;;;;;8.00;7.07;;;;;27.90;101366.00;;;;5077359;28;20194;-82
2022/09/12 10:18:41;;;;;;;10.20;7.78;;;;;28.00;101359.00;;;;5074816;28;20205;-80
2022/09/12 10:21:28;;;;;;;7.47;6.32;;;;;28.00;101348.00;;;;5084079;28;20190;-81
2022/09/12 10:24:17;;;;;;;7.00;5.38;;;;;28.10;101361.00;;;;5083976;28;20210;-81
2022/09/12 10:26:51;;;;;;;6.90;5.22;;;;;28.30;101350.00;;;;5073385;28;20225;-81
2022/09/12 10:29:22;;;;;;;7.95;5.80;;;;;28.40;101349.00;;;;5075599;28;20222;-81
2022/09/12 10:31:54;;;;;;;6.38;5.15;;;;;28.50;101345.00;;;;5080940;28;20226;-80
2022/09/12 10:34:36;;;;;;;7.95;5.15;;;;;28.60;101344.00;;;;5079884;28;20281;-81
2022/09/12 10:37:06;;;;;;;6.18;5.47;;;;;28.70;101344.00;;;;5080431;28;20191;-79
2022/09/12 10:39:35;;;;;;;8.38;6.65;;;;;28.80;101337.00;;;;5073285;28;20207;-79
2022/09/12 10:42:04;;;;;;;5.95;5.35;;;;;28.80;101332.00;;;;5075480;28;20194;-80
2022/09/12 10:44:33;;;;;;;7.22;5.75;;;;;28.80;101329.00;;;;5077416;28;20203;-79
2022/09/12 10:47:21;;;;;;;5.32;4.75;;;;;28.80;101321.00;;;;5077365;28;20205;-80
2022/09/12 10:49:49;;;;;;;5.03;4.53;;;;;29.00;101323.00;;;;5075786;28;20767;-79
2022/09/12 10:52:21;;;;;;;5.05;4.55;;;;;29.00;101314.00;;;;5087135;28;20236;-80
2022/09/12 10:54:49;;;;;;;8.00;4.50;;;;;29.10;101313.00;;;;5083197;28;20653;-80
2022/09/12 10:57:54;;;;;;;7.00;5.25;;;;;29.10;101308.00;;;;5074192;28;20214;-78
2022/09/12 11:00:26;;;;;;;7.78;4.65;;;;;29.30;101307.00;;;;4994363;28;20205;-78
2022/09/12 11:03:06;;;;;;;5.03;4.22;;;;;29.30;101311.00;;;;5058414;28;20985;-79
2022/09/12 11:05:51;;;;;;;4.07;3.72;;;;;29.30;101308.00;;;;5083222;28;20202;-78
2022/09/12 11:08:45;;;;;;;4.22;3.80;;;;;29.40;101317.00;;;;5082701;28;20567;-78
2022/09/12 11:11:28;;;;;;;4.80;3.95;;;;;29.50;101311.00;;;;5072187;28;20221;-78
2022/09/12 11:14:09;;;;;;;5.40;4.38;;;;;29.50;101313.00;;;;5077773;28;20198;-78
2022/09/12 11:16:47;;;;;;;6.90;3.75;;;;;29.60;101311.00;;;;5080407;28;20201;-80
2022/09/12 11:19:48;;;;;;;4.65;3.55;;;;;29.50;101310.00;;;;5080125;28;20642;-79
2022/09/12 11:22:29;;;;;;;4.00;3.60;;;;;29.60;101313.00;;;;5078796;28;20198;-79
2022/09/12 11:25:12;;;;;;;3.78;3.08;;;;;29.70;101310.00;;;;5080410;28;20206;-80
2022/09/12 11:27:54;;;;;;;5.55;2.92;;;;;29.70;101306.00;;;;5073747;28;20650;-79
2022/09/12 11:30:21;;;;;;;3.92;3.50;;;;;29.80;101306.00;;;;5077972;28;20222;-79
2022/09/12 11:33:12;;;;;;;5.20;3.05;;;;;29.80;101305.00;;;;5086883;28;20234;-78
2022/09/12 11:35:47;;;;;;;4.25;3.85;;;;;29.90;101301.00;;;;5071575;28;20187;-79
2022/09/12 11:38:39;;;;;;;4.15;3.28;;;;;29.90;101302.00;;;;5078719;28;20284;-83
2022/09/12 11:41:13;;;;;;;3.30;3.00;;;;;30.10;101299.00;;;;5086884;28;20199;-80
2022/09/12 11:43:46;;;;;;;2.90;2.70;;;;;30.10;101295.00;;;;5074733;28;20202;-79
2022/09/12 11:46:20;;;;;;;3.15;2.83;;;;;30.10;101303.00;;;;5083092;28;20593;-79
2022/09/12 11:48:53;;;;;;;5.40;2.92;;;;;30.10;101303.00;;;;5081389;28;20190;-81
2022/09/12 11:51:25;;;;;;;3.28;2.60;;;;;30.20;101311.00;;;;5086937;28;20236;-79
2022/09/12 11:54:02;;;;;;;2.70;2.50;;;;;30.10;101309.00;;;;5081598;28;20202;-80
2022/09/12 11:56:29;;;;;;;3.95;2.20;;;;;30.10;101301.00;;;;5072474;28;20680;-81
2022/09/12 11:59:00;;;;;;;3.10;2.17;;;;;30.00;101306.00;;;;5079004;28;20202;-79
2022/09/12 12:01:32;;;;;;;3.60;2.88;;;;;30.00;101302.00;;;;5083139;28;20205;-79
2022/09/12 12:04:06;;;;;;;2.90;2.63;;;;;29.90;101293.00;;;;5078946;28;20211;-79
2022/09/12 12:06:40;;;;;;;3.13;2.63;;;;;29.90;101288.00;;;;5071958;28;20198;-80
2022/09/12 12:09:10;;;;;;;3.10;2.60;;;;;29.90;101285.00;;;;5082235;28;20561;-81
2022/09/12 12:11:41;;;;;;;3.25;2.40;;;;;30.00;101280.00;;;;5084626;28;20242;-79
2022/09/12 12:14:16;;;;;;;6.60;2.58;;;;;29.90;101278.00;;;;5085907;28;20206;-78
2022/09/12 12:16:44;;;;;;;3.35;3.03;;;;;30.00;101279.00;;;;5070286;28;20285;-79
2022/09/12 12:19:31;;;;;;;2.92;2.63;;;;;29.90;101280.00;;;;5082310;28;20675;-77